Time;durP1;ratioP1;P1;durP2;ratioP2;P2;SDS_P1;SDS_P2;PMS_P1;PMS_P2;Temp;Humidity;BMP_temperature;BMP_pressure;BME280_temperature;BME280_humidity;BME280_pressure;Samples;Min_cycle;Max_cycle;Signal;HPM_P1;HPM_P2
2022/09/19 00:00:11;;;;;;;;;;;;;;;;;;1030038;28;4324;-56
2022/09/19 00:00:54;;;;;;;;;;;;;;;;;;1030588;28;3195;-56
2022/09/19 00:01:36;;;;;;;;;;;;;;;;;;1032323;28;4034;-56
2022/09/19 00:02:07;;;;;;;;;;;;;;;;;;1026950;28;5240;-53
2022/09/19 00:02:37;;;;;;;;;;;;;;;;;;1025727;28;3408;-56
2022/09/19 00:03:07;;;;;;;;;;;;;;;;;;1023414;28;4910;-57
2022/09/19 00:03:41;;;;;;;;;;;;;;;;;;1022242;28;3116;-57
2022/09/19 00:04:16;;;;;;;;;;;;;;;;;;1028273;28;3949;-55
2022/09/19 00:04:47;;;;;;;;;;;;;;;;;;1027837;28;2828;-57
2022/09/19 00:05:17;;;;;;;;;;;;;;;;;;1029660;28;3951;-56
2022/09/19 00:05:47;;;;;;;;;;;;;;;;;;1032092;28;2732;-53
2022/09/19 00:06:17;;;;;;;;;;;;;;;;;;1030056;28;4056;-56
2022/09/19 00:06:49;;;;;;;;;;;;;;;;;;1031475;28;2827;-57
2022/09/19 00:07:19;;;;;;;;;;;;;;;;;;1031207;28;4004;-56
2022/09/19 00:07:49;;;;;;;;;;;;;;;;;;1033360;28;2979;-58
2022/09/19 00:08:19;;;;;;;;;;;;;;;;;;1031103;28;4062;-57
2022/09/19 00:08:50;;;;;;;;;;;;;;;;;;1031340;28;3501;-55
2022/09/19 00:09:22;;;;;;;;;;;;;;;;;;1031334;28;4168;-54
2022/09/19 00:09:52;;;;;;;;;;;;;;;;;;1032265;28;3422;-58
2022/09/19 00:10:22;;;;;;;;;;;;;;;;;;1030950;28;3895;-57
2022/09/19 00:10:52;;;;;;;;;;;;;;;;;;1032731;28;2683;-52
2022/09/19 00:11:24;;;;;;;;;;;;;;;;;;1031264;28;3935;-56
2022/09/19 00:11:55;;;;;;;;;;;;;;;;;;1035495;28;3293;-56
2022/09/19 00:12:28;;;;;;;;;;;;;;;;;;1035528;28;4112;-55
2022/09/19 00:12:58;;;;;;;;;;;;;;;;;;1034435;28;3275;-54
2022/09/19 00:13:29;;;;;;;;;;;;;;;;;;1034357;28;3804;-57
2022/09/19 00:13:59;;;;;;;;;;;;;;;;;;1031876;28;3101;-56
2022/09/19 00:14:32;;;;;;;;;;;;;;;;;;1030986;28;4067;-55
2022/09/19 00:15:03;;;;;;;;;;;;;;;;;;1032325;28;2614;-56
2022/09/19 00:15:45;;;;;;;;;;;;;;;;;;1029714;28;4112;-57
2022/09/19 00:16:20;;;;;;;;;;;;;;;;;;1031759;28;3927;-58
2022/09/19 00:16:53;;;;;;;;;;;;;;;;;;1033262;28;1354;-56
2022/09/19 00:17:23;;;;;;;;;;;;;;;;;;1030661;28;3894;-56
2022/09/19 00:17:54;;;;;;;;;;;;;;;;;;1032480;28;2916;-56
2022/09/19 00:18:24;;;;;;;;;;;;;;;;;;1030522;28;4059;-57
2022/09/19 00:18:56;;;;;;;;;;;;;;;;;;1032242;28;3384;-56
2022/09/19 00:19:27;;;;;;;;;;;;;;;;;;1031155;28;3990;-56
2022/09/19 00:19:57;;;;;;;;;;;;;;;;;;1030930;28;2906;-52
2022/09/19 00:20:28;;;;;;;;;;;;;;;;;;1030203;28;4155;-57
2022/09/19 00:21:00;;;;;;;;;;;;;;;;;;1031497;28;2629;-58
2022/09/19 00:21:31;;;;;;;;;;;;;;;;;;1034727;28;3873;-58
2022/09/19 00:22:02;;;;;;;;;;;;;;;;;;1031265;28;3216;-58
2022/09/19 00:22:33;;;;;;;;;;;;;;;;;;1030893;28;4068;-56
2022/09/19 00:24:48;;;;;;;;;;;;;;;;;;1029653;28;3988;-55
2022/09/19 00:25:21;;;;;;;;;;;;;;;;;;1029704;28;4180;-58
2022/09/19 00:26:01;;;;;;;;;;;;;;;;;;1032902;28;3031;-56
2022/09/19 00:26:31;;;;;;;;;;;;;;;;;;1030724;28;4019;-55
2022/09/19 00:27:04;;;;;;;;;;;;;;;;;;1032896;28;2634;-56
2022/09/19 00:27:34;;;;;;;;;;;;;;;;;;1030020;28;3829;-56
2022/09/19 00:28:04;;;;;;;;;;;;;;;;;;1027740;28;2695;-58
2022/09/19 00:28:35;;;;;;;;;;;;;;;;;;1030438;28;3832;-57
2022/09/19 00:29:06;;;;;;;;;;;;;;;;;;1031928;28;2755;-55
2022/09/19 00:29:38;;;;;;;;;;;;;;;;;;1029936;28;3918;-58
2022/09/19 00:30:15;;;;;;;;;;;;;;;;;;1034518;28;3909;-57
2022/09/19 00:30:52;;;;;;;;;;;;;;;;;;1032218;28;2887;-58
2022/09/19 00:31:22;;;;;;;;;;;;;;;;;;1033115;28;3841;-55
2022/09/19 00:31:52;;;;;;;;;;;;;;;;;;1033722;28;3013;-57
2022/09/19 00:32:29;;;;;;;;;;;;;;;;;;1032460;28;3863;-56
2022/09/19 00:33:00;;;;;;;;;;;;;;;;;;1033170;28;1983;-55
2022/09/19 00:33:32;;;;;;;;;;;;;;;;;;1032655;28;4189;-56
2022/09/19 00:34:06;;;;;;;;;;;;;;;;;;1029401;28;2820;-56
2022/09/19 00:34:37;;;;;;;;;;;;;;;;;;1028893;28;3954;-56
2022/09/19 00:35:08;;;;;;;;;;;;;;;;;;1029353;28;4098;-57
2022/09/19 00:35:38;;;;;;;;;;;;;;;;;;1029460;28;3157;-55
2022/09/19 00:36:08;;;;;;;;;;;;;;;;;;1033222;28;4039;-55
2022/09/19 00:36:39;;;;;;;;;;;;;;;;;;1031939;28;3089;-56
2022/09/19 00:37:10;;;;;;;;;;;;;;;;;;1033658;28;4083;-55
2022/09/19 00:37:40;;;;;;;;;;;;;;;;;;1033221;28;2446;-57
2022/09/19 00:38:11;;;;;;;;;;;;;;;;;;1032940;28;4018;-52
2022/09/19 00:38:42;;;;;;;;;;;;;;;;;;1031611;28;3184;-56
2022/09/19 00:39:13;;;;;;;;;;;;;;;;;;1032481;28;4135;-57
2022/09/19 00:39:44;;;;;;;;;;;;;;;;;;1032903;28;3284;-57
2022/09/19 00:40:14;;;;;;;;;;;;;;;;;;1032621;28;5003;-54
2022/09/19 00:40:45;;;;;;;;;;;;;;;;;;1033029;28;3123;-57
2022/09/19 00:41:17;;;;;;;;;;;;;;;;;;1032928;28;3967;-57
2022/09/19 00:41:48;;;;;;;;;;;;;;;;;;1033974;28;2200;-57
2022/09/19 00:42:20;;;;;;;;;;;;;;;;;;1031885;28;3933;-58
2022/09/19 00:42:50;;;;;;;;;;;;;;;;;;1033317;28;2964;-53
2022/09/19 00:43:21;;;;;;;;;;;;;;;;;;1033510;28;4056;-53
2022/09/19 00:43:53;;;;;;;;;;;;;;;;;;1034040;28;3016;-58
2022/09/19 00:44:23;;;;;;;;;;;;;;;;;;1032153;28;4133;-58
2022/09/19 00:44:54;;;;;;;;;;;;;;;;;;1033126;28;2722;-55
2022/09/19 00:45:24;;;;;;;;;;;;;;;;;;1032139;28;4000;-55
2022/09/19 00:45:54;;;;;;;;;;;;;;;;;;1034387;28;2773;-58
2022/09/19 00:46:26;;;;;;;;;;;;;;;;;;1032684;28;3888;-57
2022/09/19 00:47:00;;;;;;;;;;;;;;;;;;1033056;28;3213;-56
2022/09/19 00:47:41;;;;;;;;;;;;;;;;;;1032524;28;4162;-58
2022/09/19 00:48:13;;;;;;;;;;;;;;;;;;1032835;28;4058;-54
2022/09/19 00:48:45;;;;;;;;;;;;;;;;;;1033765;28;3165;-54
2022/09/19 00:49:19;;;;;;;;;;;;;;;;;;1032354;28;4161;-56
2022/09/19 00:49:50;;;;;;;;;;;;;;;;;;1032620;28;2842;-57
2022/09/19 00:50:28;;;;;;;;;;;;;;;;;;1033148;28;4044;-56
2022/09/19 00:51:00;;;;;;;;;;;;;;;;;;1033906;28;3003;-56
2022/09/19 00:51:35;;;;;;;;;;;;;;;;;;1028879;28;4006;-56
2022/09/19 00:52:12;;;;;;;;;;;;;;;;;;1029794;28;2615;-55
2022/09/19 00:53:03;;;;;;;;;;;;;;;;;;1029414;28;3737;-54
2022/09/19 00:53:33;;;;;;;;;;;;;;;;;;1031418;28;3897;-55
2022/09/19 00:54:13;;;;;;;;;;;;;;;;;;1029766;28;3574;-57
2022/09/19 00:54:44;;;;;;;;;;;;;;;;;;1029806;28;3749;-56
2022/09/19 00:55:15;;;;;;;;;;;;;;;;;;1029888;28;3887;-55
2022/09/19 00:55:47;;;;;;;;;;;;;;;;;;1030803;28;3474;-57
2022/09/19 00:56:18;;;;;;;;;;;;;;;;;;1033031;28;3893;-55
2022/09/19 00:56:52;;;;;;;;;;;;;;;;;;1032863;28;1916;-58
2022/09/19 00:57:25;;;;;;;;;;;;;;;;;;1032922;28;4082;-57
2022/09/19 00:57:59;;;;;;;;;;;;;;;;;;1033483;28;2598;-59
2022/09/19 00:58:37;;;;;;;;;;;;;;;;;;1033751;28;4105;-57
2022/09/19 00:59:08;;;;;;;;;;;;;;;;;;1028396;28;4003;-55
2022/09/19 00:59:40;;;;;;;;;;;;;;;;;;1025441;28;3271;-56
2022/09/19 01:00:12;;;;;;;;;;;;;;;;;;1024826;28;4039;-58
2022/09/19 01:00:42;;;;;;;;;;;;;;;;;;1024872;28;2463;-58
2022/09/19 01:01:14;;;;;;;;;;;;;;;;;;1025852;28;4110;-53
2022/09/19 01:01:46;;;;;;;;;;;;;;;;;;1032417;28;3118;-57
2022/09/19 01:02:21;;;;;;;;;;;;;;;;;;1026936;28;4091;-55
2022/09/19 01:02:51;;;;;;;;;;;;;;;;;;1030710;28;3077;-54
2022/09/19 01:03:24;;;;;;;;;;;;;;;;;;1030044;28;3867;-55
2022/09/19 01:03:55;;;;;;;;;;;;;;;;;;1030853;28;3190;-58
2022/09/19 01:04:28;;;;;;;;;;;;;;;;;;1032887;28;3875;-58
2022/09/19 01:05:00;;;;;;;;;;;;;;;;;;1028865;28;2627;-55
2022/09/19 01:05:41;;;;;;;;;;;;;;;;;;1029970;28;3900;-58
2022/09/19 01:06:24;;;;;;;;;;;;;;;;;;1032152;28;3893;-58
2022/09/19 01:07:30;;;;;;;;;;;;;;;;;;1033913;28;2836;-58
2022/09/19 01:08:13;;;;;;;;;;;;;;;;;;1018661;29;4260;-57
2022/09/19 01:08:57;;;;;;;;;;;;;;;;;;1017886;28;3820;-58
2022/09/19 01:09:37;;;;;;;;;;;;;;;;;;1017018;28;3831;-55
2022/09/19 01:10:20;;;;;;;;;;;;;;;;;;1017345;29;3913;-56
2022/09/19 01:10:59;;;;;;;;;;;;;;;;;;1030826;28;1972;-58
2022/09/19 01:11:57;;;;;;;;;;;;;;;;;;1033273;28;3860;-57
2022/09/19 01:12:37;;;;;;;;;;;;;;;;;;1033074;28;4039;-53
2022/09/19 01:13:17;;;;;;;;;;;;;;;;;;1028597;28;4168;-58
2022/09/19 01:13:54;;;;;;;;;;;;;;;;;;1029438;28;4122;-55
2022/09/19 01:14:28;;;;;;;;;;;;;;;;;;1028817;28;3887;-56
2022/09/19 01:15:06;;;;;;;;;;;;;;;;;;1031719;28;2665;-59
2022/09/19 01:15:40;;;;;;;;;;;;;;;;;;1032177;28;3780;-59
2022/09/19 01:16:24;;;;;;;;;;;;;;;;;;1030443;28;4660;-55
2022/09/19 01:17:08;;;;;;;;;;;;;;;;;;1031311;28;3014;-59
2022/09/19 01:17:46;;;;;;;;;;;;;;;;;;1032289;28;3820;-52
2022/09/19 01:18:18;;;;;;;;;;;;;;;;;;1029327;28;4007;-56
2022/09/19 01:19:05;;;;;;;;;;;;;;;;;;1031556;28;2728;-57
2022/09/19 01:19:41;;;;;;;;;;;;;;;;;;1029791;28;3980;-58
2022/09/19 01:20:11;;;;;;;;;;;;;;;;;;1033092;28;3881;-56
2022/09/19 01:21:37;;;;;;;;;;;;;;;;;;1034126;28;2671;-58
2022/09/19 01:21:59;;;;;;;;;;;;;;;;;;1034298;28;3821;-58
2022/09/19 01:22:30;;;;;;;;;;;;;;;;;;1034301;28;3961;-57
2022/09/19 01:23:06;;;;;;;;;;;;;;;;;;1033740;28;2922;-58
2022/09/19 01:24:03;;;;;;;;;;;;;;;;;;1033626;28;3919;-60
2022/09/19 01:24:40;;;;;;;;;;;;;;;;;;1031982;28;3851;-58
2022/09/19 01:25:25;;;;;;;;;;;;;;;;;;1029448;28;3977;-56
2022/09/19 01:26:10;;;;;;;;;;;;;;;;;;1035244;28;3170;-58
2022/09/19 01:26:45;;;;;;;;;;;;;;;;;;1031397;28;5806;-56
2022/09/19 01:27:18;;;;;;;;;;;;;;;;;;1037265;28;4109;-57
2022/09/19 01:28:08;;;;;;;;;;;;;;;;;;1035472;28;2204;-56
2022/09/19 01:29:00;;;;;;;;;;;;;;;;;;1034704;28;4212;-55
2022/09/19 01:29:34;;;;;;;;;;;;;;;;;;1033023;28;7588;-58
2022/09/19 01:30:20;;;;;;;;;;;;;;;;;;1031913;28;3201;-58
2022/09/19 01:31:17;;;;;;;;;;;;;;;;;;1030619;28;4025;-57
2022/09/19 01:31:50;;;;;;;;;;;;;;;;;;1029321;28;3999;-56
2022/09/19 01:32:24;;;;;;;;;;;;;;;;;;1029813;28;3919;-57
2022/09/19 01:33:01;;;;;;;;;;;;;;;;;;1030975;28;3051;-58
2022/09/19 01:33:31;;;;;;;;;;;;;;;;;;1029011;28;3877;-58
2022/09/19 01:34:12;;;;;;;;;;;;;;;;;;1030029;28;2682;-56
2022/09/19 01:34:45;;;;;;;;;;;;;;;;;;1029310;28;3800;-57
2022/09/19 01:35:16;;;;;;;;;;;;;;;;;;1029295;28;4094;-59
2022/09/19 01:35:50;;;;;;;;;;;;;;;;;;1030215;28;2904;-55
2022/09/19 01:36:26;;;;;;;;;;;;;;;;;;1029028;28;3876;-57
2022/09/19 01:37:03;;;;;;;;;;;;;;;;;;1027124;28;2777;-57
2022/09/19 01:37:36;;;;;;;;;;;;;;;;;;1024286;28;3867;-58
2022/09/19 01:38:11;;;;;;;;;;;;;;;;;;1025295;28;4096;-57
2022/09/19 01:38:43;;;;;;;;;;;;;;;;;;1026828;28;2416;-56
2022/09/19 01:39:16;;;;;;;;;;;;;;;;;;1029727;28;3851;-56
2022/09/19 01:39:48;;;;;;;;;;;;;;;;;;1029499;28;2694;-58
2022/09/19 01:40:21;;;;;;;;;;;;;;;;;;1030555;28;3810;-58
2022/09/19 01:40:52;;;;;;;;;;;;;;;;;;1029507;28;1596;-59
2022/09/19 01:41:22;;;;;;;;;;;;;;;;;;1029390;28;4177;-57
2022/09/19 01:41:53;;;;;;;;;;;;;;;;;;1030120;28;2767;-58
2022/09/19 01:42:23;;;;;;;;;;;;;;;;;;1029137;28;3932;-56
2022/09/19 01:42:57;;;;;;;;;;;;;;;;;;1028782;28;2562;-53
2022/09/19 01:43:27;;;;;;;;;;;;;;;;;;1029337;28;4077;-58
2022/09/19 01:44:02;;;;;;;;;;;;;;;;;;1029219;28;3128;-57
2022/09/19 01:44:32;;;;;;;;;;;;;;;;;;1030218;28;3897;-57
2022/09/19 01:45:08;;;;;;;;;;;;;;;;;;1029506;28;1899;-56
2022/09/19 01:45:39;;;;;;;;;;;;;;;;;;1030004;28;4884;-58
2022/09/19 01:46:30;;;;;;;;;;;;;;;;;;1030328;28;4440;-57
2022/09/19 01:47:19;;;;;;;;;;;;;;;;;;1018741;28;2763;-59
2022/09/19 01:47:53;;;;;;;;;;;;;;;;;;1021299;28;3955;-56
2022/09/19 01:48:27;;;;;;;;;;;;;;;;;;1029682;28;3820;-58
2022/09/19 01:49:06;;;;;;;;;;;;;;;;;;1028869;28;2720;-58
2022/09/19 01:49:57;;;;;;;;;;;;;;;;;;1028078;28;4158;-57
2022/09/19 01:50:37;;;;;;;;;;;;;;;;;;1018874;29;4085;-59
2022/09/19 01:51:17;;;;;;;;;;;;;;;;;;1023866;28;3913;-57
2022/09/19 01:51:50;;;;;;;;;;;;;;;;;;1023256;28;2884;-58
2022/09/19 01:52:23;;;;;;;;;;;;;;;;;;1027473;28;3797;-57
2022/09/19 01:52:58;;;;;;;;;;;;;;;;;;1028957;28;3353;-57
2022/09/19 01:53:49;;;;;;;;;;;;;;;;;;1029177;28;3900;-56
2022/09/19 01:54:38;;;;;;;;;;;;;;;;;;1030345;28;4229;-56
2022/09/19 01:55:28;;;;;;;;;;;;;;;;;;1029236;28;4004;-57
2022/09/19 01:56:05;;;;;;;;;;;;;;;;;;1029971;28;2502;-58
2022/09/19 01:56:36;;;;;;;;;;;;;;;;;;1029728;28;3636;-57
2022/09/19 01:57:14;;;;;;;;;;;;;;;;;;1029265;28;4081;-57
2022/09/19 01:57:55;;;;;;;;;;;;;;;;;;1030712;28;3085;-57
2022/09/19 01:58:26;;;;;;;;;;;;;;;;;;1029546;28;4192;-56
2022/09/19 01:59:14;;;;;;;;;;;;;;;;;;1029297;28;3122;-56
2022/09/19 01:59:50;;;;;;;;;;;;;;;;;;1029757;28;3876;-56
2022/09/19 02:00:22;;;;;;;;;;;;;;;;;;1028915;28;3922;-59
2022/09/19 02:01:01;;;;;;;;;;;;;;;;;;1025721;28;2918;-54
2022/09/19 02:01:45;;;;;;;;;;;;;;;;;;1024524;28;4043;-58
2022/09/19 02:02:28;;;;;;;;;;;;;;;;;;1025772;28;4095;-53
2022/09/19 02:03:18;;;;;;;;;;;;;;;;;;1027476;28;3168;-57
2022/09/19 02:04:01;;;;;;;;;;;;;;;;;;1028031;28;3837;-56
2022/09/19 02:04:43;;;;;;;;;;;;;;;;;;1027811;28;3864;-57
2022/09/19 02:05:36;;;;;;;;;;;;;;;;;;1028849;28;4065;-57
2022/09/19 02:06:09;;;;;;;;;;;;;;;;;;1022574;28;3941;-58
2022/09/19 02:06:47;;;;;;;;;;;;;;;;;;1029478;28;2413;-59
2022/09/19 02:07:23;;;;;;;;;;;;;;;;;;1029354;28;4249;-57
2022/09/19 02:08:07;;;;;;;;;;;;;;;;;;1030000;28;2800;-56
2022/09/19 02:08:47;;;;;;;;;;;;;;;;;;1029289;28;3822;-56
2022/09/19 02:09:36;;;;;;;;;;;;;;;;;;1028423;28;3892;-55
2022/09/19 02:10:09;;;;;;;;;;;;;;;;;;1029651;28;4082;-58
2022/09/19 02:10:46;;;;;;;;;;;;;;;;;;1029572;28;2521;-59
2022/09/19 02:11:21;;;;;;;;;;;;;;;;;;1028783;28;4020;-59
2022/09/19 02:11:52;;;;;;;;;;;;;;;;;;1029338;28;3510;-58
2022/09/19 02:12:23;;;;;;;;;;;;;;;;;;1030353;28;4978;-55
2022/09/19 02:12:56;;;;;;;;;;;;;;;;;;1029830;28;3548;-59
2022/09/19 02:13:29;;;;;;;;;;;;;;;;;;1030207;28;3883;-55
2022/09/19 02:14:07;;;;;;;;;;;;;;;;;;1029229;28;3161;-59
2022/09/19 02:14:38;;;;;;;;;;;;;;;;;;1029984;28;3691;-58
2022/09/19 02:15:11;;;;;;;;;;;;;;;;;;1029519;28;3898;-58
2022/09/19 02:15:46;;;;;;;;;;;;;;;;;;1030052;28;2778;-58
2022/09/19 02:16:30;;;;;;;;;;;;;;;;;;1029225;28;3996;-56
2022/09/19 02:17:06;;;;;;;;;;;;;;;;;;1029998;28;2762;-58
2022/09/19 02:17:44;;;;;;;;;;;;;;;;;;1030051;28;3857;-58
2022/09/19 02:18:25;;;;;;;;;;;;;;;;;;1029376;28;4049;-58
2022/09/19 02:18:58;;;;;;;;;;;;;;;;;;1030449;28;3312;-59
2022/09/19 02:19:35;;;;;;;;;;;;;;;;;;1029285;28;4086;-57
2022/09/19 02:20:07;;;;;;;;;;;;;;;;;;1027738;28;2713;-59
2022/09/19 02:20:40;;;;;;;;;;;;;;;;;;1027990;28;3917;-56
2022/09/19 02:21:13;;;;;;;;;;;;;;;;;;1027188;28;4071;-57
2022/09/19 02:21:48;;;;;;;;;;;;;;;;;;1030566;28;1703;-55
2022/09/19 02:22:28;;;;;;;;;;;;;;;;;;1029201;28;4160;-57
2022/09/19 02:23:00;;;;;;;;;;;;;;;;;;1029577;28;2584;-55
2022/09/19 02:23:33;;;;;;;;;;;;;;;;;;1029468;28;3963;-59
2022/09/19 02:24:13;;;;;;;;;;;;;;;;;;1029958;28;2965;-58
2022/09/19 02:24:45;;;;;;;;;;;;;;;;;;1029788;28;3657;-58
2022/09/19 02:25:18;;;;;;;;;;;;;;;;;;1027972;28;3801;-57
2022/09/19 02:25:50;;;;;;;;;;;;;;;;;;1027647;28;3064;-58
2022/09/19 02:26:21;;;;;;;;;;;;;;;;;;1026385;28;3857;-57
2022/09/19 02:26:52;;;;;;;;;;;;;;;;;;1028250;28;3274;-58
2022/09/19 02:27:25;;;;;;;;;;;;;;;;;;1029566;28;3932;-55
2022/09/19 02:27:58;;;;;;;;;;;;;;;;;;1025882;28;3054;-55
2022/09/19 02:28:34;;;;;;;;;;;;;;;;;;1026827;28;3893;-58
2022/09/19 02:29:06;;;;;;;;;;;;;;;;;;1028463;28;2776;-57
2022/09/19 02:29:40;;;;;;;;;;;;;;;;;;1029724;28;3664;-59
2022/09/19 02:30:10;;;;;;;;;;;;;;;;;;1029251;28;4057;-57
2022/09/19 02:30:54;;;;;;;;;;;;;;;;;;1034028;28;3372;-58
2022/09/19 02:31:32;;;;;;;;;;;;;;;;;;1034227;28;4015;-58
2022/09/19 02:32:02;;;;;;;;;;;;;;;;;;1034374;28;3448;-57
2022/09/19 02:32:35;;;;;;;;;;;;;;;;;;1033532;28;3933;-57
2022/09/19 02:33:06;;;;;;;;;;;;;;;;;;1033657;28;2733;-57
2022/09/19 02:33:37;;;;;;;;;;;;;;;;;;1033750;28;4042;-58
2022/09/19 02:34:07;;;;;;;;;;;;;;;;;;1034516;28;4061;-56
2022/09/19 02:34:38;;;;;;;;;;;;;;;;;;1029637;28;3415;-57
2022/09/19 02:35:08;;;;;;;;;;;;;;;;;;1029215;28;4081;-58
2022/09/19 02:35:58;;;;;;;;;;;;;;;;;;1029848;28;2395;-60
2022/09/19 02:36:34;;;;;;;;;;;;;;;;;;1032610;28;4044;-55
2022/09/19 02:37:07;;;;;;;;;;;;;;;;;;1034713;28;2678;-58
2022/09/19 02:37:43;;;;;;;;;;;;;;;;;;1033906;28;3911;-57
2022/09/19 02:38:31;;;;;;;;;;;;;;;;;;1034246;28;3872;-57
2022/09/19 02:39:16;;;;;;;;;;;;;;;;;;1035046;28;3325;-56
2022/09/19 02:39:48;;;;;;;;;;;;;;;;;;1034524;28;4028;-56
2022/09/19 02:40:31;;;;;;;;;;;;;;;;;;1033113;28;4109;-59
2022/09/19 02:41:01;;;;;;;;;;;;;;;;;;1035137;28;2692;-59
2022/09/19 02:41:49;;;;;;;;;;;;;;;;;;1033768;28;3862;-56
2022/09/19 02:42:30;;;;;;;;;;;;;;;;;;1033663;28;3789;-52
2022/09/19 02:43:17;;;;;;;;;;;;;;;;;;1033893;28;3086;-59
2022/09/19 02:43:54;;;;;;;;;;;;;;;;;;1035122;28;3782;-58
2022/09/19 02:44:35;;;;;;;;;;;;;;;;;;1033446;28;3917;-58
2022/09/19 02:45:06;;;;;;;;;;;;;;;;;;1034836;28;3155;-57
2022/09/19 02:45:39;;;;;;;;;;;;;;;;;;1034022;28;4224;-57
2022/09/19 02:46:15;;;;;;;;;;;;;;;;;;1033791;28;4261;-58
2022/09/19 02:46:53;;;;;;;;;;;;;;;;;;1035454;28;3294;-57
2022/09/19 02:47:30;;;;;;;;;;;;;;;;;;1033629;28;4080;-58
2022/09/19 02:48:03;;;;;;;;;;;;;;;;;;1034052;28;3610;-58
2022/09/19 02:48:45;;;;;;;;;;;;;;;;;;1033779;28;4122;-57
2022/09/19 02:49:33;;;;;;;;;;;;;;;;;;1034117;28;3934;-58
2022/09/19 02:50:09;;;;;;;;;;;;;;;;;;1033744;28;2800;-58
2022/09/19 02:50:47;;;;;;;;;;;;;;;;;;1035083;28;3715;-55
2022/09/19 02:51:21;;;;;;;;;;;;;;;;;;1032926;28;4260;-57
2022/09/19 02:51:56;;;;;;;;;;;;;;;;;;1034380;28;3184;-58
2022/09/19 02:52:29;;;;;;;;;;;;;;;;;;1033583;28;4153;-60
2022/09/19 02:53:00;;;;;;;;;;;;;;;;;;1034246;28;2480;-57
2022/09/19 02:53:33;;;;;;;;;;;;;;;;;;1033813;28;3944;-58
2022/09/19 02:54:26;;;;;;;;;;;;;;;;;;1033972;28;2895;-58
2022/09/19 02:55:02;;;;;;;;;;;;;;;;;;1034304;28;3958;-57
2022/09/19 02:55:34;;;;;;;;;;;;;;;;;;1034632;28;4117;-57
2022/09/19 02:56:05;;;;;;;;;;;;;;;;;;1033976;28;3253;-55
2022/09/19 02:56:37;;;;;;;;;;;;;;;;;;1034521;28;4218;-55
2022/09/19 02:57:10;;;;;;;;;;;;;;;;;;1033644;28;4158;-56
2022/09/19 02:57:43;;;;;;;;;;;;;;;;;;1034787;28;2468;-57
2022/09/19 02:58:15;;;;;;;;;;;;;;;;;;1033576;28;3911;-59
2022/09/19 02:58:49;;;;;;;;;;;;;;;;;;1033966;28;3745;-57
2022/09/19 02:59:23;;;;;;;;;;;;;;;;;;1034107;28;3974;-55
2022/09/19 02:59:58;;;;;;;;;;;;;;;;;;1035141;28;3082;-58
2022/09/19 03:00:32;;;;;;;;;;;;;;;;;;1033595;28;3933;-59
2022/09/19 03:01:06;;;;;;;;;;;;;;;;;;1033911;28;2659;-56
2022/09/19 03:01:37;;;;;;;;;;;;;;;;;;1034001;28;4032;-56
2022/09/19 03:02:10;;;;;;;;;;;;;;;;;;1035466;28;4045;-54
2022/09/19 03:02:44;;;;;;;;;;;;;;;;;;1034178;28;2979;-58
2022/09/19 03:04:12;;;;;;;;;;;;;;;;;;1030577;28;4457;-58
2022/09/19 03:04:46;;;;;;;;;;;;;;;;;;1029681;28;3040;-58
2022/09/19 03:05:19;;;;;;;;;;;;;;;;;;1029826;28;3959;-58
2022/09/19 03:05:50;;;;;;;;;;;;;;;;;;1031942;28;3104;-56
2022/09/19 03:06:24;;;;;;;;;;;;;;;;;;1033551;28;3877;-55
2022/09/19 03:06:54;;;;;;;;;;;;;;;;;;1034697;28;3412;-59
2022/09/19 03:07:27;;;;;;;;;;;;;;;;;;1033814;28;3890;-58
2022/09/19 03:07:59;;;;;;;;;;;;;;;;;;1034642;28;2704;-57
2022/09/19 03:08:36;;;;;;;;;;;;;;;;;;1034665;28;4232;-54
2022/09/19 03:09:08;;;;;;;;;;;;;;;;;;1034585;28;4068;-57
2022/09/19 03:09:41;;;;;;;;;;;;;;;;;;1033794;28;3157;-55
2022/09/19 03:10:14;;;;;;;;;;;;;;;;;;1034973;28;4109;-58
2022/09/19 03:10:48;;;;;;;;;;;;;;;;;;1033896;28;2688;-57
2022/09/19 03:11:19;;;;;;;;;;;;;;;;;;1033032;28;3805;-56
2022/09/19 03:11:53;;;;;;;;;;;;;;;;;;1035024;28;2589;-57
2022/09/19 03:12:30;;;;;;;;;;;;;;;;;;1034841;28;3933;-57
2022/09/19 03:13:03;;;;;;;;;;;;;;;;;;1034683;28;2705;-59
2022/09/19 03:13:36;;;;;;;;;;;;;;;;;;1033860;28;4592;-57
2022/09/19 03:14:07;;;;;;;;;;;;;;;;;;1034038;28;3920;-56
2022/09/19 03:14:38;;;;;;;;;;;;;;;;;;1031319;28;3179;-59
2022/09/19 03:15:09;;;;;;;;;;;;;;;;;;1030199;28;3904;-57
2022/09/19 03:15:51;;;;;;;;;;;;;;;;;;1030765;28;2143;-59
2022/09/19 03:16:23;;;;;;;;;;;;;;;;;;1031919;28;3894;-57
2022/09/19 03:16:56;;;;;;;;;;;;;;;;;;1034522;28;3380;-57
2022/09/19 03:17:31;;;;;;;;;;;;;;;;;;1034143;28;4079;-58
2022/09/19 03:18:07;;;;;;;;;;;;;;;;;;1033907;28;3111;-58
2022/09/19 03:18:38;;;;;;;;;;;;;;;;;;1035159;28;3902;-57
2022/09/19 03:19:09;;;;;;;;;;;;;;;;;;1034970;28;4022;-58
2022/09/19 03:19:41;;;;;;;;;;;;;;;;;;1034049;28;3284;-59
2022/09/19 03:20:13;;;;;;;;;;;;;;;;;;1034642;28;3958;-55
2022/09/19 03:21:03;;;;;;;;;;;;;;;;;;1034049;28;3035;-55
2022/09/19 03:21:33;;;;;;;;;;;;;;;;;;1033706;28;4037;-59
2022/09/19 03:22:04;;;;;;;;;;;;;;;;;;1034828;28;2796;-58
2022/09/19 03:22:34;;;;;;;;;;;;;;;;;;1033443;28;3858;-57
2022/09/19 03:23:05;;;;;;;;;;;;;;;;;;1034303;28;3177;-59
2022/09/19 03:23:40;;;;;;;;;;;;;;;;;;1032471;28;3826;-59
2022/09/19 03:24:11;;;;;;;;;;;;;;;;;;1036568;28;4264;-55
2022/09/19 03:24:42;;;;;;;;;;;;;;;;;;1038157;28;3164;-58
2022/09/19 03:25:14;;;;;;;;;;;;;;;;;;1037111;28;4056;-56
2022/09/19 03:25:44;;;;;;;;;;;;;;;;;;1038188;28;3222;-57
2022/09/19 03:26:20;;;;;;;;;;;;;;;;;;1032850;28;3915;-59
2022/09/19 03:26:50;;;;;;;;;;;;;;;;;;1033760;28;3219;-56
2022/09/19 03:27:20;;;;;;;;;;;;;;;;;;1030401;28;4090;-57
2022/09/19 03:27:51;;;;;;;;;;;;;;;;;;1030775;28;2686;-57
2022/09/19 03:28:22;;;;;;;;;;;;;;;;;;1029030;28;3899;-57
2022/09/19 03:28:54;;;;;;;;;;;;;;;;;;1029408;28;2857;-58
2022/09/19 03:29:25;;;;;;;;;;;;;;;;;;1032322;28;4269;-58
2022/09/19 03:29:55;;;;;;;;;;;;;;;;;;1033464;28;3275;-57
2022/09/19 03:30:39;;;;;;;;;;;;;;;;;;1034134;28;3954;-56
2022/09/19 03:31:17;;;;;;;;;;;;;;;;;;1029283;28;4109;-58
2022/09/19 03:31:50;;;;;;;;;;;;;;;;;;1029749;28;2754;-58
2022/09/19 03:32:25;;;;;;;;;;;;;;;;;;1030276;28;4059;-57
2022/09/19 03:32:55;;;;;;;;;;;;;;;;;;1030507;28;3668;-59
2022/09/19 03:33:26;;;;;;;;;;;;;;;;;;1029474;28;3889;-56
2022/09/19 03:33:56;;;;;;;;;;;;;;;;;;1031424;28;2908;-56
2022/09/19 03:34:26;;;;;;;;;;;;;;;;;;1029382;28;3912;-59
2022/09/19 03:34:56;;;;;;;;;;;;;;;;;;1030169;28;3123;-56
2022/09/19 03:35:27;;;;;;;;;;;;;;;;;;1029443;28;3969;-59
2022/09/19 03:35:59;;;;;;;;;;;;;;;;;;1027769;28;2791;-57
2022/09/19 03:36:30;;;;;;;;;;;;;;;;;;1025750;28;3839;-58
2022/09/19 03:37:02;;;;;;;;;;;;;;;;;;1026710;28;3208;-57
2022/09/19 03:37:39;;;;;;;;;;;;;;;;;;1028215;28;3780;-57
2022/09/19 03:38:10;;;;;;;;;;;;;;;;;;1029347;28;4302;-56
2022/09/19 03:38:44;;;;;;;;;;;;;;;;;;1029337;28;2988;-58
2022/09/19 03:39:15;;;;;;;;;;;;;;;;;;1029784;28;4054;-58
2022/09/19 03:39:45;;;;;;;;;;;;;;;;;;1030257;28;2261;-59
2022/09/19 03:40:16;;;;;;;;;;;;;;;;;;1030418;28;3978;-57
2022/09/19 03:40:46;;;;;;;;;;;;;;;;;;1030011;28;2548;-55
2022/09/19 03:41:18;;;;;;;;;;;;;;;;;;1029851;28;3904;-56
2022/09/19 03:41:49;;;;;;;;;;;;;;;;;;1030452;28;3024;-59
2022/09/19 03:42:20;;;;;;;;;;;;;;;;;;1030489;28;3768;-59
2022/09/19 03:42:52;;;;;;;;;;;;;;;;;;1030410;28;2347;-55
2022/09/19 03:43:23;;;;;;;;;;;;;;;;;;1028718;28;4030;-57
2022/09/19 03:43:53;;;;;;;;;;;;;;;;;;1030084;28;2685;-58
2022/09/19 03:44:23;;;;;;;;;;;;;;;;;;1030496;28;4112;-59
2022/09/19 03:44:53;;;;;;;;;;;;;;;;;;1030979;28;3169;-56
2022/09/19 03:45:31;;;;;;;;;;;;;;;;;;1031299;28;3932;-59
2022/09/19 03:46:01;;;;;;;;;;;;;;;;;;1030505;28;2697;-57
2022/09/19 03:46:31;;;;;;;;;;;;;;;;;;1028391;28;3988;-59
2022/09/19 03:47:02;;;;;;;;;;;;;;;;;;1026526;28;3129;-57
2022/09/19 03:47:32;;;;;;;;;;;;;;;;;;1025828;28;4346;-58
2022/09/19 03:48:02;;;;;;;;;;;;;;;;;;1025715;28;2441;-55
2022/09/19 03:48:34;;;;;;;;;;;;;;;;;;1030633;28;4021;-57
2022/09/19 03:49:04;;;;;;;;;;;;;;;;;;1030412;28;2755;-56
2022/09/19 03:49:35;;;;;;;;;;;;;;;;;;1029896;28;4010;-58
2022/09/19 03:50:06;;;;;;;;;;;;;;;;;;1026981;28;2879;-57
2022/09/19 03:50:36;;;;;;;;;;;;;;;;;;1026862;28;3924;-59
2022/09/19 03:51:07;;;;;;;;;;;;;;;;;;1025628;28;3987;-57
2022/09/19 03:51:37;;;;;;;;;;;;;;;;;;1025681;28;4505;-58
2022/09/19 03:52:07;;;;;;;;;;;;;;;;;;1031155;28;4078;-58
2022/09/19 03:52:37;;;;;;;;;;;;;;;;;;1030139;28;2477;-55
2022/09/19 03:53:09;;;;;;;;;;;;;;;;;;1031708;28;3968;-58
2022/09/19 03:53:42;;;;;;;;;;;;;;;;;;1029853;28;2479;-59
2022/09/19 03:54:12;;;;;;;;;;;;;;;;;;1030231;28;4081;-56
2022/09/19 03:54:44;;;;;;;;;;;;;;;;;;1030492;28;2539;-57
2022/09/19 03:55:15;;;;;;;;;;;;;;;;;;1028686;28;4033;-58
2022/09/19 03:55:46;;;;;;;;;;;;;;;;;;1027654;28;3235;-55
2022/09/19 03:56:16;;;;;;;;;;;;;;;;;;1026733;28;3922;-59
2022/09/19 03:56:46;;;;;;;;;;;;;;;;;;1028930;28;2467;-55
2022/09/19 03:57:17;;;;;;;;;;;;;;;;;;1029480;28;3987;-57
2022/09/19 03:57:47;;;;;;;;;;;;;;;;;;1029746;28;4081;-56
2022/09/19 03:58:17;;;;;;;;;;;;;;;;;;1030938;28;3896;-58
2022/09/19 03:58:48;;;;;;;;;;;;;;;;;;1030734;28;3119;-59
2022/09/19 03:59:18;;;;;;;;;;;;;;;;;;1029747;28;4060;-57
2022/09/19 03:59:48;;;;;;;;;;;;;;;;;;1031010;28;2758;-57
2022/09/19 04:00:25;;;;;;;;;;;;;;;;;;1029115;28;3916;-54
2022/09/19 04:00:55;;;;;;;;;;;;;;;;;;1026321;28;2932;-58
2022/09/19 04:01:25;;;;;;;;;;;;;;;;;;1026760;28;4119;-58
2022/09/19 04:01:56;;;;;;;;;;;;;;;;;;1024829;28;2948;-58
2022/09/19 04:02:26;;;;;;;;;;;;;;;;;;1023104;28;3886;-58
2022/09/19 04:02:56;;;;;;;;;;;;;;;;;;1025269;28;3062;-57